ADDS METAR Data INFO
IDs: Format: Raw Decoded Include TAF

Data at: 1512 UTC 23 Oct 2017

KEQA 231455Z AUTO 35013G19KT 10SM CLR 15/05 A3004 RMK AO2
KEQA 231435Z AUTO 32008KT 10SM CLR 13/05 A3002 RMK AO2
KEQA 231415Z AUTO 30009KT 10SM CLR 12/05 A3001 RMK AO2
KEQA 231355Z AUTO 26006KT 10SM CLR 11/06 A3001 RMK AO2
KEQA 231335Z AUTO 27005KT 10SM CLR 11/06 A3000 RMK AO2
KEQA 231315Z AUTO 26007KT 10SM CLR 10/05 A2998 RMK AO2
KEQA 231255Z AUTO 22008KT 10SM CLR 10/05 A2996 RMK AO2
KEQA 231235Z AUTO 21007KT 10SM CLR 10/05 A2996 RMK AO2
KEQA 231215Z AUTO 20008KT 10SM CLR 10/05 A2996 RMK AO2
KEQA 231155Z AUTO 21010KT 10SM CLR 10/05 A2996 RMK AO2
KEQA 231135Z AUTO 21009KT 10SM CLR 10/05 A2997 RMK AO2
KEQA 231115Z AUTO 21008KT 10SM CLR 10/05 A2996 RMK AO2
KEQA 231055Z AUTO 21008KT 10SM CLR 10/04 A2996 RMK AO2
KEQA 231035Z AUTO 21008KT 10SM CLR 10/05 A2996 RMK AO2
KEQA 231015Z AUTO 20008KT 10SM CLR 09/05 A2997 RMK AO2
KEQA 230955Z AUTO 20008KT 10SM CLR 10/04 A2998 RMK AO2
KEQA 230935Z AUTO 20007KT 10SM CLR 09/05 A3000 RMK AO2
KEQA 230915Z AUTO 20008KT 10SM CLR 10/05 A3000 RMK AO2
KEQA 230855Z AUTO 20007KT 10SM CLR 10/05 A3001 RMK AO2
KEQA 230835Z AUTO 19007KT 10SM CLR 10/05 A3001 RMK AO2
KEQA 230815Z AUTO 20007KT 10SM CLR 10/05 A3002 RMK AO2
KEQA 230755Z AUTO 19008KT 10SM CLR 09/05 A3002 RMK AO2
KEQA 230735Z AUTO 20006KT 10SM CLR 08/05 A3003 RMK AO2
KEQA 230715Z AUTO 19006KT 10SM CLR 08/05 A3003 RMK AO2
KEQA 230655Z AUTO 18007KT 10SM CLR 08/05 A3004 RMK AO2
KEQA 230635Z AUTO 18007KT 10SM CLR 08/05 A3004 RMK AO2
KEQA 230615Z AUTO 20007KT 10SM CLR 11/05 A3005 RMK AO2
KEQA 230555Z AUTO 20008KT 10SM CLR 11/05 A3005 RMK AO2
KEQA 230535Z AUTO 20007KT 10SM CLR 09/05 A3007 RMK AO2
KEQA 230515Z AUTO 19007KT 10SM CLR 08/04 A3007 RMK AO2
KEQA 230455Z AUTO 18005KT 10SM CLR 08/04 A3008 RMK AO2
KEQA 230435Z AUTO 17005KT 10SM CLR 10/03 A3008 RMK AO2
KEQA 230415Z AUTO 18004KT 10SM CLR 10/04 A3008 RMK AO2
KEQA 230355Z AUTO 17004KT 10SM CLR 10/03 A3009 RMK AO2
KEQA 230335Z AUTO 17004KT 10SM CLR 10/03 A3009 RMK AO2
KEQA 230315Z AUTO 18004KT 10SM CLR 10/04 A3009 RMK AO2
KEQA 230255Z AUTO 17004KT 10SM CLR 11/03 A3009 RMK AO2
KEQA 230235Z AUTO 17005KT 10SM CLR 11/03 A3009 RMK AO2
KEQA 230215Z AUTO 17004KT 10SM CLR 11/04 A3009 RMK AO2
KEQA 230155Z AUTO 17005KT 10SM CLR 11/04 A3009 RMK AO2
KEQA 230135Z AUTO 17004KT 10SM CLR 12/04 A3010 RMK AO2
KEQA 230115Z AUTO 17004KT 10SM CLR 13/03 A3010 RMK AO2
KEQA 230055Z AUTO 17004KT 10SM CLR 13/03 A3011 RMK AO2
KEQA 230035Z AUTO 17004KT 10SM CLR 13/03 A3010 RMK AO2
KEQA 230015Z AUTO 19005KT 10SM CLR 15/03 A3010 RMK AO2
KEQA 222355Z AUTO 18004KT 10SM CLR 16/01 A3010 RMK AO2
KEQA 222335Z AUTO 19004KT 10SM CLR 17/02 A3010 RMK AO2
KEQA 222315Z AUTO 00000KT 10SM CLR 18/01 A3011 RMK AO2
KEQA 222255Z AUTO 26005KT 10SM CLR 20/00 A3011 RMK AO2
KEQA 222235Z AUTO 26006KT 10SM CLR 20/00 A3010 RMK AO2
KEQA 222215Z AUTO 26003KT 10SM CLR 20/00 A3011 RMK AO2
KEQA 222155Z AUTO 25005KT 10SM CLR 20/00 A3011 RMK AO2
KEQA 222135Z AUTO 26004KT 10SM CLR 21/00 A3012 RMK AO2
KEQA 222115Z AUTO 22006KT 10SM CLR 21/00 A3012 RMK AO2
KEQA 222055Z AUTO 27005KT 10SM SCT075 21/00 A3012 RMK AO2
KEQA 222035Z AUTO 30010G15KT 10SM CLR 21/01 A3012 RMK AO2
KEQA 222015Z AUTO 31006KT 10SM CLR 21/00 A3013 RMK AO2
KEQA 221955Z AUTO 29008KT 10SM CLR 21/00 A3013 RMK AO2
KEQA 221935Z AUTO 32007KT 10SM CLR 21/00 A3013 RMK AO2
KEQA 221915Z AUTO 31006KT 10SM CLR 21/00 A3014 RMK AO2
KEQA 221855Z AUTO 33006KT 10SM CLR 20/00 A3015 RMK AO2
KEQA 221835Z AUTO 31005KT 10SM CLR 20/01 A3016 RMK AO2
KEQA 221815Z AUTO 29005KT 10SM CLR 20/01 A3017 RMK AO2
KEQA 221755Z AUTO 34007KT 10SM CLR 20/01 A3018 RMK AO2
KEQA 221735Z AUTO 35006KT 10SM CLR 19/02 A3018 RMK AO2
KEQA 221715Z AUTO 31007KT 10SM CLR 18/02 A3019 RMK AO2
KEQA 221655Z AUTO 29005KT 10SM CLR 18/03 A3020 RMK AO2
KEQA 221635Z AUTO 31006KT 10SM CLR 17/03 A3020 RMK AO2
KEQA 221615Z AUTO 31007KT 10SM CLR 17/06 A3020 RMK AO2
KEQA 221555Z AUTO 30009KT 10SM CLR 16/06 A3019 RMK AO2
KEQA 221535Z AUTO 31008KT 10SM CLR 15/07 A3019 RMK AO2
KEQA 221515Z AUTO 33007KT 10SM CLR 13/06 A3018 RMK AO2
KEQA 221455Z AUTO 31009KT 10SM CLR 12/07 A3018 RMK AO2
KEQA 221435Z AUTO 31007KT 10SM CLR 12/07 A3018 RMK AO2
KEQA 221415Z AUTO 31006KT 10SM CLR 11/07 A3018 RMK AO2
KEQA 221355Z AUTO 31005KT 10SM CLR 10/06 A3017 RMK AO2
KEQA 221335Z AUTO 31006KT 10SM CLR 08/06 A3016 RMK AO2
KEQA 221315Z AUTO 31006KT 10SM CLR 08/06 A3016 RMK AO2
KEQA 221255Z AUTO 32006KT 10SM CLR 07/05 A3014 RMK AO2
KEQA 221235Z AUTO 32006KT 10SM CLR 07/06 A3015 RMK AO2
KEQA 221215Z AUTO 32007KT 10SM CLR 07/06 A3013 RMK AO2
KEQA 221155Z AUTO 33005KT 10SM CLR 07/06 A3012 RMK AO2
KEQA 221135Z AUTO 32004KT 10SM CLR 07/06 A3013 RMK AO2
KEQA 221115Z AUTO 31004KT 10SM CLR 07/06 A3013 RMK AO2
KEQA 221055Z AUTO 31005KT 10SM CLR 07/06 A3012 RMK AO2
KEQA 221035Z AUTO 31005KT 10SM CLR 08/06 A3011 RMK AO2
KEQA 221015Z AUTO 30006KT 10SM CLR 08/06 A3011 RMK AO2
KEQA 220955Z AUTO 32004KT 10SM CLR 09/07 A3009 RMK AO2
KEQA 220935Z AUTO 30003KT 10SM CLR 09/07 A3008 RMK AO2
KEQA 220915Z AUTO 33004KT 10SM CLR 10/08 A3006 RMK AO2
KEQA 220855Z AUTO 33004KT 10SM CLR 10/08 A3005 RMK AO2
KEQA 220835Z AUTO 33003KT 10SM CLR 10/08 A3007 RMK AO2
KEQA 220815Z AUTO 32003KT 10SM CLR 11/09 A3005 RMK AO2
KEQA 220755Z AUTO 34006KT 10SM CLR 11/10 A3002 RMK AO2
KEQA 220735Z AUTO 35005KT 10SM CLR 11/09 A3003 RMK AO2
KEQA 220715Z AUTO 35004KT 10SM CLR 11/09 A3003 RMK AO2
KEQA 220655Z AUTO 36004KT 10SM CLR 11/10 A3003 RMK AO2
KEQA 220635Z AUTO 00000KT 10SM CLR 12/10 A3004 RMK AO2
KEQA 220615Z AUTO 01005KT 10SM CLR 12/09 A3000 RMK AO2
KEQA 220555Z AUTO 02008KT 10SM SCT110 12/09 A2997 RMK AO2
KEQA 220535Z AUTO 02010KT 10SM BKN090 OVC110 12/10 A2998 RMK AO2
KEQA 220515Z AUTO 35009KT 10SM -RA SCT070 OVC090 12/10 A2999 RMK AO2
KEQA 220455Z AUTO 03010G15KT 10SM -RA OVC080 12/10 A2999 RMK AO2
KEQA 220435Z AUTO 03012KT 10SM -RA OVC080 12/11 A3001 RMK AO2
KEQA 220415Z AUTO 02010KT 10SM -RA OVC080 12/11 A3001 RMK AO2
KEQA 220355Z AUTO 02008KT 10SM RA OVC080 12/11 A2999 RMK AO2
KEQA 220335Z AUTO 03011G16KT 10SM RA OVC080 12/11 A2998 RMK AO2
KEQA 220315Z AUTO 03014KT 7SM RA OVC090 13/11 A2997 RMK AO2